createdAt,value
2023-01-23T00:01:36.509Z,98768.38
2023-01-23T00:04:05.587Z,98807.44
2023-01-23T00:06:33.427Z,98799.69
2023-01-23T00:09:02.006Z,98802.41
2023-01-23T00:11:32.061Z,98805.94
2023-01-23T00:14:01.569Z,98807.88
2023-01-23T00:16:32.374Z,98802.88
2023-01-23T00:19:02.376Z,98803.19
2023-01-23T00:21:30.988Z,98813.50
2023-01-23T00:24:01.901Z,98811.56
2023-01-23T00:26:32.654Z,98810.56
2023-01-23T00:29:01.074Z,98820.22
2023-01-23T00:31:30.789Z,98822.50
2023-01-23T00:34:03.621Z,98814.25
2023-01-23T00:36:33.062Z,98819.31
2023-01-23T00:39:01.093Z,98822.06
2023-01-23T00:41:29.746Z,98821.81
2023-01-23T00:43:57.565Z,98813.34
2023-01-23T00:46:25.413Z,98822.34
2023-01-23T00:48:53.854Z,98810.09
2023-01-23T00:51:23.420Z,98831.63
2023-01-23T00:53:51.946Z,98833.50
2023-01-23T00:56:20.176Z,98828.16
2023-01-23T00:58:48.109Z,98843.81
2023-01-23T01:01:17.861Z,98841.03
2023-01-23T01:03:46.468Z,98843.72
2023-01-23T01:06:14.401Z,98855.03
2023-01-23T01:08:43.934Z,98859.34
2023-01-23T01:11:11.759Z,98852.06
2023-01-23T01:13:39.595Z,98862.22
2023-01-23T01:16:09.176Z,98856.03
2023-01-23T01:18:37.010Z,98861.97
2023-01-23T01:21:09.162Z,98861.41
2023-01-23T01:23:37.316Z,98859.03
2023-01-23T01:26:07.943Z,98855.47
2023-01-23T01:28:38.470Z,98860.13
2023-01-23T01:31:08.651Z,98874.47
2023-01-23T01:33:36.994Z,98858.66
2023-01-23T01:36:10.007Z,98862.38
2023-01-23T01:38:38.728Z,98862.25
2023-01-23T01:41:08.774Z,98852.94
2023-01-23T01:43:37.093Z,98861.34
2023-01-23T01:46:12.741Z,98865.84
2023-01-23T01:48:45.581Z,98870.28
2023-01-23T01:51:20.377Z,98879.72
2023-01-23T01:53:52.105Z,98875.56
2023-01-23T01:56:22.320Z,98861.28
2023-01-23T01:58:56.733Z,98886.41
2023-01-23T02:01:24.985Z,98872.81
2023-01-23T02:03:54.388Z,98880.13
2023-01-23T02:06:22.391Z,98890.56
2023-01-23T02:08:58.579Z,98864.09
2023-01-23T02:11:27.663Z,98882.13
2023-01-23T02:13:57.111Z,98886.41
2023-01-23T02:16:29.831Z,98891.69
2023-01-23T02:19:01.658Z,98888.19
2023-01-23T02:21:30.709Z,98892.72
2023-01-23T02:24:11.776Z,98905.00
2023-01-23T02:26:44.431Z,98901.09
2023-01-23T02:29:13.327Z,98897.31
2023-01-23T02:31:43.314Z,98896.38
2023-01-23T02:34:13.592Z,98898.56
2023-01-23T02:36:45.797Z,98901.47
2023-01-23T02:39:16.116Z,98895.78
2023-01-23T02:41:48.321Z,98891.63
2023-01-23T02:44:19.121Z,98884.59
2023-01-23T02:46:47.427Z,98905.69
2023-01-23T02:49:15.543Z,98901.63
2023-01-23T02:51:43.330Z,98911.03
2023-01-23T02:54:11.562Z,98903.22
2023-01-23T02:56:39.740Z,98911.47
2023-01-23T02:59:26.657Z,98902.19
2023-01-23T03:01:54.579Z,98889.84
2023-01-23T03:04:22.455Z,98899.13
2023-01-23T03:06:51.002Z,98895.13
2023-01-23T03:09:19.781Z,98895.28
2023-01-23T03:11:48.845Z,98886.72
2023-01-23T03:14:20.151Z,98879.91
2023-01-23T03:16:51.785Z,98869.31
2023-01-23T03:19:23.029Z,98859.00
2023-01-23T03:21:52.331Z,98859.25
2023-01-23T03:24:21.529Z,98852.34
2023-01-23T03:26:50.848Z,98857.97
2023-01-23T03:29:40.288Z,98855.50
2023-01-23T03:32:08.957Z,98845.91
2023-01-23T03:34:37.059Z,98850.19
2023-01-23T03:37:08.310Z,98859.53
2023-01-23T03:39:58.852Z,98855.84
2023-01-23T03:42:29.920Z,98854.88
2023-01-23T03:44:59.058Z,98864.69
2023-01-23T03:47:27.324Z,98866.53
2023-01-23T03:49:55.772Z,98867.13
2023-01-23T03:52:23.795Z,98866.75
2023-01-23T03:54:53.319Z,98870.25
2023-01-23T03:57:21.627Z,98859.81
2023-01-23T03:59:49.807Z,98867.44
2023-01-23T04:02:19.912Z,98877.91
2023-01-23T04:04:49.117Z,98883.84
2023-01-23T04:07:17.163Z,98883.47
2023-01-23T04:09:45.439Z,98886.53
2023-01-23T04:12:14.245Z,98893.06
2023-01-23T04:14:42.839Z,98900.28
2023-01-23T04:17:12.497Z,98892.25
2023-01-23T04:19:42.546Z,98905.00
2023-01-23T04:22:10.944Z,98894.75
2023-01-23T04:24:39.080Z,98891.00
2023-01-23T04:27:07.607Z,98892.78
2023-01-23T04:29:35.648Z,98898.03
2023-01-23T04:32:04.834Z,98904.06
2023-01-23T04:34:33.977Z,98894.03
2023-01-23T04:37:03.808Z,98892.56
2023-01-23T04:39:33.505Z,98903.78
2023-01-23T04:42:02.020Z,98906.84
2023-01-23T04:44:29.904Z,98905.84
2023-01-23T04:46:58.311Z,98914.69
2023-01-23T04:49:26.474Z,98917.28
2023-01-23T04:51:55.461Z,98895.03
2023-01-23T04:54:24.693Z,98913.44
2023-01-23T04:56:53.121Z,98897.69
2023-01-23T04:59:22.301Z,98905.59
2023-01-23T05:01:54.299Z,98904.50
2023-01-23T05:04:22.306Z,98905.84
2023-01-23T05:06:51.409Z,98907.53
2023-01-23T05:09:19.546Z,98920.91
2023-01-23T05:11:52.269Z,98926.25
2023-01-23T05:14:22.157Z,98922.25
2023-01-23T05:16:50.295Z,98940.94
2023-01-23T05:19:18.954Z,98929.72
2023-01-23T05:21:46.983Z,98933.41
2023-01-23T05:24:14.936Z,98928.09
2023-01-23T05:26:44.347Z,98936.84
2023-01-23T05:29:13.758Z,98936.09
2023-01-23T05:31:41.701Z,98940.28
2023-01-23T05:34:10.077Z,98943.13
2023-01-23T05:36:38.145Z,98943.44
2023-01-23T05:39:06.227Z,98944.88
2023-01-23T05:41:36.226Z,98944.69
2023-01-23T05:44:04.184Z,98950.34
2023-01-23T05:46:33.769Z,98952.97
2023-01-23T05:49:02.231Z,98943.47
2023-01-23T05:51:33.887Z,98951.47
2023-01-23T05:54:03.368Z,98914.81
2023-01-23T05:56:31.456Z,98943.06
2023-01-23T05:58:59.508Z,98947.19
2023-01-23T06:01:28.404Z,98955.22
2023-01-23T06:03:57.943Z,98956.31
2023-01-23T06:06:27.583Z,98964.84
2023-01-23T06:08:58.675Z,98966.25
2023-01-23T06:11:27.875Z,98962.03
2023-01-23T06:13:58.094Z,98981.91
2023-01-23T06:16:28.348Z,98981.09
2023-01-23T06:18:57.769Z,98979.22
2023-01-23T06:21:25.771Z,98992.78
2023-01-23T06:23:54.681Z,98994.59
2023-01-23T06:26:23.145Z,99003.59
2023-01-23T06:28:51.447Z,98999.56
2023-01-23T06:31:20.243Z,98999.97
2023-01-23T06:33:52.349Z,99011.03
2023-01-23T06:36:23.066Z,99011.03
2023-01-23T06:38:51.895Z,99017.97
2023-01-23T06:41:20.634Z,99019.16
2023-01-23T06:43:49.575Z,99020.66
2023-01-23T06:46:17.631Z,99016.09
2023-01-23T06:48:46.286Z,99024.28
2023-01-23T06:51:15.051Z,99022.88
2023-01-23T06:53:47.162Z,99033.94
2023-01-23T06:56:15.955Z,99037.78
2023-01-23T06:58:47.532Z,99039.66
2023-01-23T07:01:18.894Z,99026.63
2023-01-23T07:03:47.974Z,99039.88
2023-01-23T07:06:17.401Z,99037.41
2023-01-23T07:08:47.742Z,99038.75
2023-01-23T07:11:16.021Z,99050.22
2023-01-23T07:13:44.209Z,99050.44
2023-01-23T07:16:12.877Z,99051.94
2023-01-23T07:18:41.020Z,99052.88
2023-01-23T07:21:09.423Z,99059.09
2023-01-23T07:23:38.330Z,99056.53
2023-01-23T07:26:09.755Z,99062.09
2023-01-23T07:28:38.560Z,99063.31
2023-01-23T07:31:07.622Z,99068.91
2023-01-23T07:33:38.317Z,99064.75
2023-01-23T07:36:08.085Z,99076.94
2023-01-23T07:38:37.032Z,99067.13
2023-01-23T07:41:06.583Z,99068.38
2023-01-23T07:43:37.522Z,99059.31
2023-01-23T07:46:15.147Z,99058.53
2023-01-23T07:48:43.270Z,99049.81
2023-01-23T07:51:12.421Z,99056.53
2023-01-23T07:53:40.825Z,99052.06
2023-01-23T07:56:09.663Z,99062.44
2023-01-23T07:58:39.750Z,99068.03
2023-01-23T08:01:11.939Z,99071.13
2023-01-23T08:03:41.046Z,99070.84
2023-01-23T08:06:14.500Z,99071.84
2023-01-23T08:08:43.714Z,99065.28
2023-01-23T08:11:21.377Z,99058.38
2023-01-23T08:13:52.782Z,99075.94
2023-01-23T08:16:21.594Z,99075.47
2023-01-23T08:18:50.063Z,99072.28
2023-01-23T08:21:19.233Z,99081.88
2023-01-23T08:23:47.656Z,99076.66
2023-01-23T08:26:18.919Z,99076.66
2023-01-23T08:28:50.075Z,99070.59
2023-01-23T08:31:20.990Z,99066.75
2023-01-23T08:33:50.062Z,99077.84
2023-01-23T08:36:18.453Z,99078.56
2023-01-23T08:38:46.862Z,99078.34
2023-01-23T08:41:15.765Z,99067.84
2023-01-23T08:43:44.687Z,99061.66
2023-01-23T08:46:13.390Z,99076.00
2023-01-23T08:48:43.796Z,99060.25
2023-01-23T08:51:14.255Z,99075.13
2023-01-23T08:53:42.669Z,99065.91
2023-01-23T08:56:17.309Z,99054.53
2023-01-23T08:58:46.265Z,99051.06
2023-01-23T09:01:15.537Z,99055.00
2023-01-23T09:03:46.766Z,99050.28
2023-01-23T09:06:16.607Z,99054.63
2023-01-23T09:08:45.097Z,99062.50
2023-01-23T09:11:15.460Z,99068.91
2023-01-23T09:13:44.140Z,99065.41
2023-01-23T09:16:12.467Z,99074.72
2023-01-23T09:18:41.282Z,99083.53
2023-01-23T09:21:12.835Z,99089.09
2023-01-23T09:23:41.803Z,99089.34
2023-01-23T09:26:11.693Z,99083.22
2023-01-23T09:28:43.129Z,99087.69
2023-01-23T09:31:13.585Z,99087.34
2023-01-23T09:33:42.814Z,99085.47
2023-01-23T09:36:13.816Z,99083.44
2023-01-23T09:38:42.827Z,99082.75
2023-01-23T09:41:18.377Z,99089.09
2023-01-23T09:43:54.419Z,99085.28
2023-01-23T09:46:29.490Z,99088.31
2023-01-23T09:49:04.668Z,99083.75
2023-01-23T09:51:46.496Z,99090.56
2023-01-23T09:54:26.863Z,99076.63
2023-01-23T09:56:57.795Z,99078.03
2023-01-23T09:59:40.367Z,99081.00
2023-01-23T10:02:20.437Z,99086.50
2023-01-23T10:04:51.408Z,99094.31
2023-01-23T10:07:37.500Z,99072.38
2023-01-23T10:10:29.691Z,99081.00
2023-01-23T10:13:09.817Z,99090.84
2023-01-23T10:15:57.431Z,99083.31
2023-01-23T10:18:28.462Z,99071.44
2023-01-23T10:21:12.094Z,99081.91
2023-01-23T10:23:55.947Z,99069.56
2023-01-23T10:26:31.708Z,99064.31
2023-01-23T10:29:13.167Z,99065.69
2023-01-23T10:31:46.749Z,99072.03
2023-01-23T10:34:22.298Z,99064.19
2023-01-23T10:37:04.502Z,99054.50
2023-01-23T10:39:47.770Z,99060.84
2023-01-23T10:42:24.324Z,99058.38
2023-01-23T10:44:54.152Z,99059.78
2023-01-23T10:47:33.241Z,99053.16
2023-01-23T10:50:04.924Z,99059.78
2023-01-23T10:52:39.781Z,99059.16
2023-01-23T10:55:31.906Z,99054.75
2023-01-23T10:58:04.151Z,99064.44
2023-01-23T11:00:40.221Z,99067.72
2023-01-23T11:03:30.814Z,99060.50
2023-01-23T11:06:04.547Z,99053.06
2023-01-23T11:08:37.419Z,99052.28
2023-01-23T11:11:27.309Z,99029.19
2023-01-23T11:14:09.903Z,99054.09
2023-01-23T11:16:45.074Z,99049.72
2023-01-23T11:19:26.954Z,99044.44
2023-01-23T11:21:58.833Z,99044.00
2023-01-23T11:24:41.083Z,99045.44
2023-01-23T11:27:24.435Z,99048.25
2023-01-23T11:30:13.424Z,99038.25
2023-01-23T11:32:51.632Z,99030.16
2023-01-23T11:35:27.102Z,99029.53
2023-01-23T11:38:03.102Z,99028.88
2023-01-23T11:40:33.573Z,99038.22
2023-01-23T11:43:13.135Z,99023.53
2023-01-23T11:45:52.475Z,99019.81
2023-01-23T11:48:42.086Z,99025.94
2023-01-23T11:51:29.825Z,99015.41
2023-01-23T11:54:12.014Z,99015.81
2023-01-23T11:56:56.443Z,99017.94
2023-01-23T11:59:47.965Z,99010.13
2023-01-23T12:02:45.446Z,99018.16
2023-01-23T12:05:48.627Z,99019.50
2023-01-23T12:08:30.789Z,98992.00
2023-01-23T12:11:13.402Z,99018.53
2023-01-23T12:14:09.567Z,99015.50
2023-01-23T12:16:54.691Z,99014.41
2023-01-23T12:19:39.472Z,99013.34
2023-01-23T12:22:17.600Z,99003.63
2023-01-23T12:24:59.478Z,98994.16
2023-01-23T12:27:38.287Z,98996.28
2023-01-23T12:30:34.849Z,99005.25
2023-01-23T12:33:20.716Z,98987.44
2023-01-23T12:35:59.180Z,98981.19
2023-01-23T12:38:35.108Z,98990.91
2023-01-23T12:41:22.474Z,98988.16
2023-01-23T12:43:57.042Z,98992.28
2023-01-23T12:46:31.162Z,98990.56
2023-01-23T12:49:15.439Z,98983.53
2023-01-23T12:51:49.943Z,98973.47
2023-01-23T12:54:33.187Z,98977.06
2023-01-23T12:57:04.010Z,98953.09
2023-01-23T12:59:46.723Z,98964.63
2023-01-23T13:02:23.356Z,98958.91
2023-01-23T13:05:18.238Z,98966.44
2023-01-23T13:07:56.109Z,98964.28
2023-01-23T13:11:13.356Z,98960.31
2023-01-23T13:13:46.400Z,98955.06
2023-01-23T13:16:17.507Z,98953.22
2023-01-23T13:19:14.538Z,98953.84
2023-01-23T13:22:09.295Z,98950.38
2023-01-23T13:25:15.786Z,98950.97
2023-01-23T13:27:48.802Z,98956.75
2023-01-23T13:30:42.411Z,98959.22
2023-01-23T13:34:10.237Z,98960.63
2023-01-23T13:36:46.120Z,98964.84
2023-01-23T13:39:29.718Z,98952.44
2023-01-23T13:42:38.678Z,98962.75
2023-01-23T13:45:27.601Z,98957.75
2023-01-23T14:21:30.335Z,98939.19
2023-01-23T14:24:05.078Z,98955.25
2023-01-23T14:26:36.345Z,98944.41
2023-01-23T14:29:18.197Z,98943.09
2023-01-23T14:31:47.680Z,98948.69
2023-01-23T14:34:20.390Z,98952.00
2023-01-23T14:36:52.863Z,98950.97
2023-01-23T14:39:25.029Z,98947.59
2023-01-23T14:41:59.067Z,98945.28
2023-01-23T14:44:32.361Z,98938.09
2023-01-23T14:47:04.211Z,98947.66
2023-01-23T14:49:37.694Z,98940.06
2023-01-23T14:52:08.227Z,98944.56
2023-01-23T14:54:37.996Z,98942.81
2023-01-23T14:57:10.841Z,98944.00
2023-01-23T14:59:41.524Z,98942.03
2023-01-23T15:02:28.240Z,98939.47
2023-01-23T15:05:17.626Z,98931.28
2023-01-23T15:07:48.458Z,98938.78
2023-01-23T15:10:20.554Z,98938.31
2023-01-23T15:12:52.075Z,98944.97
2023-01-23T15:15:24.161Z,98939.97
2023-01-23T15:17:54.278Z,98944.97
2023-01-23T15:20:32.879Z,98945.91
2023-01-23T15:23:22.535Z,98938.16
2023-01-23T15:26:12.467Z,98940.88
2023-01-23T15:28:43.700Z,98936.56
2023-01-23T15:31:38.324Z,98925.56
2023-01-23T15:34:22.705Z,98943.38
2023-01-23T15:36:54.814Z,98941.94
2023-01-23T15:39:27.855Z,98941.13
2023-01-23T15:41:59.979Z,98923.06
2023-01-23T15:44:32.556Z,98951.06
2023-01-23T15:47:05.375Z,98949.88
2023-01-23T15:49:38.460Z,98951.34
2023-01-23T15:52:20.700Z,98957.69
2023-01-23T15:54:50.782Z,98959.75
2023-01-23T15:57:20.539Z,98955.03
2023-01-23T15:59:51.471Z,98960.38
2023-01-23T16:02:33.547Z,98965.72
2023-01-23T16:05:04.299Z,98975.78
2023-01-23T16:07:36.567Z,98976.63
2023-01-23T16:10:09.434Z,98978.47
2023-01-23T16:12:43.593Z,98985.91
2023-01-23T16:15:17.452Z,98975.88
2023-01-23T16:17:47.053Z,98981.97
2023-01-23T16:20:16.893Z,98983.88
2023-01-23T16:22:51.689Z,98983.88
2023-01-23T16:25:38.017Z,98991.69
2023-01-23T16:28:14.768Z,98989.25
2023-01-23T16:30:43.566Z,98993.78
2023-01-23T16:33:13.110Z,98995.63
2023-01-23T16:35:48.602Z,99004.25
2023-01-23T16:38:22.665Z,99012.53
2023-01-23T16:40:53.791Z,99005.50
2023-01-23T16:43:23.464Z,99008.41
2023-01-23T16:45:56.136Z,99012.13
2023-01-23T16:48:27.727Z,99010.75
2023-01-23T16:51:00.967Z,99014.63
2023-01-23T16:53:33.094Z,99029.00
2023-01-23T16:56:03.736Z,99039.69
2023-01-23T16:58:36.819Z,99035.78
2023-01-23T17:01:10.394Z,99046.69
2023-01-23T17:03:41.985Z,99043.63
2023-01-23T17:06:15.764Z,99028.44
2023-01-23T17:08:45.391Z,99050.41
2023-01-23T17:11:21.942Z,99053.66
2023-01-23T17:13:52.408Z,99045.47
2023-01-23T17:16:27.428Z,99045.88
2023-01-23T17:18:59.261Z,99054.06
2023-01-23T17:21:33.209Z,99050.16
2023-01-23T17:24:04.421Z,99058.38
2023-01-23T17:26:33.056Z,99047.72
2023-01-23T17:29:01.262Z,99060.69
2023-01-23T17:31:32.951Z,99072.53
2023-01-23T17:34:01.613Z,99077.28
2023-01-23T17:36:29.750Z,99069.69
2023-01-23T17:39:00.473Z,99080.97
2023-01-23T17:41:32.207Z,99085.88
2023-01-23T17:44:01.182Z,99090.00
2023-01-23T17:46:33.002Z,99092.13
2023-01-23T17:49:01.852Z,99084.66
2023-01-23T17:51:30.046Z,99086.75
2023-01-23T17:53:59.040Z,99089.81
2023-01-23T17:56:27.459Z,99102.59
2023-01-23T17:58:57.118Z,99089.63
2023-01-23T18:01:26.836Z,99090.03
2023-01-23T18:03:56.047Z,99101.75
2023-01-23T18:06:24.252Z,99104.84
2023-01-23T18:08:52.377Z,99105.66
2023-01-23T18:11:22.959Z,99094.97
2023-01-23T18:14:16.779Z,99102.75
2023-01-23T18:16:48.249Z,99099.91
2023-01-23T18:19:19.135Z,99105.88
2023-01-23T18:21:49.811Z,99109.13
2023-01-23T18:24:24.872Z,99085.13
2023-01-23T18:26:59.472Z,99100.53
2023-01-23T18:29:36.814Z,99105.47
2023-01-23T18:32:29.173Z,99093.78
2023-01-23T18:35:03.998Z,99107.09
2023-01-23T18:37:44.898Z,99098.69
2023-01-23T18:40:22.201Z,99100.94
2023-01-23T18:42:56.965Z,99109.75
2023-01-23T18:45:28.092Z,99104.44
2023-01-23T18:47:57.651Z,99118.00
2023-01-23T18:50:27.125Z,99118.63
2023-01-23T18:53:17.462Z,99111.41
2023-01-23T18:55:51.940Z,99103.59
2023-01-23T18:58:32.621Z,99114.06
2023-01-23T19:01:13.441Z,99113.88
2023-01-23T19:03:44.952Z,99113.06
2023-01-23T19:06:20.845Z,99109.78
2023-01-23T19:08:50.764Z,99103.81
2023-01-23T19:11:32.651Z,99114.13
2023-01-23T19:14:12.720Z,99115.13
2023-01-23T19:16:46.887Z,99106.09
2023-01-23T19:19:25.065Z,99121.28
2023-01-23T19:21:53.653Z,99121.28
2023-01-23T19:24:22.145Z,99119.84
2023-01-23T19:26:51.907Z,99129.09
2023-01-23T19:29:22.723Z,99121.91
2023-01-23T19:32:09.203Z,99133.19
2023-01-23T19:34:37.256Z,99126.63
2023-01-23T19:37:05.852Z,99131.34
2023-01-23T19:39:34.258Z,99135.03
2023-01-23T19:42:02.319Z,99133.00
2023-01-23T19:44:31.310Z,99129.28
2023-01-23T19:47:03.500Z,99135.06
2023-01-23T19:49:33.264Z,99134.44
2023-01-23T19:52:01.983Z,99133.59
2023-01-23T19:54:29.933Z,99135.44
2023-01-23T19:56:58.401Z,99137.91
2023-01-23T19:59:27.302Z,99140.16
2023-01-23T20:01:55.593Z,99139.13
2023-01-23T20:04:25.874Z,99145.53
2023-01-23T20:06:53.972Z,99140.78
2023-01-23T20:09:22.832Z,99132.78
2023-01-23T20:11:52.701Z,99133.84
2023-01-23T20:14:22.248Z,99142.66
2023-01-23T20:16:50.375Z,99143.25
2023-01-23T20:19:20.070Z,99148.19
2023-01-23T20:21:50.725Z,99158.28
2023-01-23T20:24:19.209Z,99161.16
2023-01-23T20:26:48.046Z,99155.19
2023-01-23T20:29:16.651Z,99164.84
2023-01-23T20:31:44.975Z,99161.75
2023-01-23T20:34:13.492Z,99160.94
2023-01-23T20:36:42.092Z,99170.19
2023-01-23T20:39:12.310Z,99169.97
2023-01-23T20:41:40.895Z,99171.63
2023-01-23T20:44:09.447Z,99172.44
2023-01-23T20:46:37.622Z,99165.69
2023-01-23T20:49:06.473Z,99170.19
2023-01-23T20:51:34.716Z,99164.22
2023-01-23T20:54:01.881Z,99163.41
2023-01-23T20:56:32.012Z,99162.38
2023-01-23T20:59:17.852Z,99171.63
2023-01-23T21:02:04.797Z,99159.72
2023-01-23T21:04:34.520Z,99159.91
2023-01-23T21:07:03.078Z,99160.94
2023-01-23T21:09:31.859Z,99160.50
2023-01-23T21:12:01.389Z,99167.91
2023-01-23T21:14:29.968Z,99155.34
2023-01-23T21:16:58.830Z,99153.53
2023-01-23T21:19:27.675Z,99147.81
2023-01-23T21:21:56.092Z,99150.25
2023-01-23T21:24:25.282Z,99159.50
2023-01-23T21:26:53.343Z,99154.38
2023-01-23T21:29:22.833Z,99157.88
2023-01-23T21:31:51.745Z,99154.38
2023-01-23T21:34:20.213Z,99168.34
2023-01-23T21:36:48.497Z,99176.38
2023-01-23T21:39:18.191Z,99174.09
2023-01-23T21:41:46.371Z,99168.97
2023-01-23T21:44:14.923Z,99166.47
2023-01-23T21:46:47.062Z,99165.03
2023-01-23T21:49:15.711Z,99168.75
2023-01-23T21:51:44.790Z,99165.06
2023-01-23T21:54:13.381Z,99168.75
2023-01-23T21:56:41.402Z,99168.09
2023-01-23T21:59:09.282Z,99166.03
2023-01-23T22:01:38.095Z,99172.00
2023-01-23T22:04:09.655Z,99175.72
2023-01-23T22:06:39.719Z,99174.25
2023-01-23T22:09:09.331Z,99175.09
2023-01-23T22:11:37.709Z,99171.97
2023-01-23T22:14:06.373Z,99173.41
2023-01-23T22:16:50.666Z,99169.69
2023-01-23T22:19:25.548Z,99172.97
2023-01-23T22:21:54.519Z,99177.72
2023-01-23T22:24:23.424Z,99168.25
2023-01-23T22:26:51.552Z,99168.22
2023-01-23T22:29:19.758Z,99177.91
2023-01-23T22:31:48.520Z,99165.56
2023-01-23T22:34:16.668Z,99176.28
2023-01-23T22:36:46.201Z,99173.63
2023-01-23T22:39:16.534Z,99170.13
2023-01-23T22:41:46.353Z,99173.66
2023-01-23T22:44:14.729Z,99170.97
2023-01-23T22:46:43.412Z,99171.81
2023-01-23T22:49:11.431Z,99167.28
2023-01-23T22:51:39.878Z,99167.69
2023-01-23T22:54:09.378Z,99173.84
2023-01-23T22:56:37.562Z,99172.41
2023-01-23T22:59:05.810Z,99163.38
2023-01-23T23:01:34.223Z,99162.38
2023-01-23T23:04:02.333Z,99171.19
2023-01-23T23:06:30.451Z,99174.28
2023-01-23T23:08:58.865Z,99165.25
2023-01-23T23:11:29.930Z,99169.16
2023-01-23T23:13:59.373Z,99168.50
2023-01-23T23:16:29.407Z,99176.97
2023-01-23T23:18:58.404Z,99154.75
2023-01-23T23:21:30.844Z,99156.00
2023-01-23T23:24:00.633Z,99164.19
2023-01-23T23:26:32.749Z,99154.50
2023-01-23T23:29:01.342Z,99165.59
2023-01-23T23:31:30.074Z,99165.81
2023-01-23T23:33:58.614Z,99161.09
2023-01-23T23:36:26.688Z,99162.75
2023-01-23T23:38:55.025Z,99162.16
2023-01-23T23:41:23.622Z,99167.06
2023-01-23T23:43:53.136Z,99160.06
2023-01-23T23:46:21.288Z,99156.72
2023-01-23T23:48:49.806Z,99169.34
2023-01-23T23:51:19.905Z,99164.81
2023-01-23T23:53:49.920Z,99166.06
2023-01-23T23:56:21.707Z,99169.50
2023-01-23T23:58:50.389Z,99159.66
